Luro, Sweden

10:55 AM CET on December 21, 2014 (GMT +0100)
Husaby | Change Station
CLOSE
Current Station
Personal Weather Station
Location: Husaby, VäSTRA GöTALANDS LäN
Elevation: 295 ft
Nearby Weather Stations

Elev 295 ft 58.53 °N, 13.38 °E | Updated 1 minute ago

Clear
Clear
31.5 °F
Feels Like 32 °F
N
0.7
Wind Variable Wind from SW
Gusts 1.6 mph

Today
High -- | Low -- °F
--% Chance of Precip.
Yesterday
High -- | Low -- °F
Precip. -- in
8:57 AM 3:12 PM
Waning Crescent, 1% visible
Pressure 29.80 in
Visibility 6.2 miles
Clouds
Windchill 32 °F
Dew Point 25 °F
Humidity 76%
Rainfall 0.00 in
Snow Depth Not available.
UV Not available.
Pollen Not available.
Air Quality Not available.
Flu Activity Not available.
METAR ESIB 210950Z AUTO 21003KT 9999NDV NCD 00/M02 Q1009

More Conditions Fewer Conditions

Pressure 29.80 in
Visibility 6.2 miles
Clouds
Windchill 32 °F
Dew Point 25 °F
Humidity 76%
Rainfall 0.00 in
Snow Depth Not available.
UV Not available.
Pollen Not available.
Air Quality Not available.
Flu Activity Not available.
METAR ESIB 210950Z AUTO 21003KT 9999NDV NCD 00/M02 Q1009

More Conditions Fewer Conditions

10-Day Weather Forecast

Almanac

Astronomy

Dec. 21, 2014 Rise Set
Actual Time
Civil Twilight
Nautical Twilight
Astronomical Twilight
Moon
Length of Visible Light
Length of Day
Tomorrow will be .
, % of the Moon is Illuminated

Today's Extremes

Country Highs Country Lows

Community

WunderPhotos

Upload Photos

1,779,364 photos uploaded!

WunderBlogs® & News

Nearby

Air Quality

  Air Quality AQ Index Pollutant
Not available.

Snow Depth

Station Depth Elevation

Earthquake Activity

City Distance Mag. Time & Date
Minimum magnitude displayed is 2.5.

Coastal Water Temperatures

Place Temperature

Nearby Weather Stations